createdAt,value
2018-07-16T00:00:38.630Z,18.54
2018-07-16T00:03:07.786Z,18.56
2018-07-16T00:05:36.962Z,18.44
2018-07-16T00:08:06.459Z,18.58
2018-07-16T00:10:35.648Z,18.50
2018-07-16T00:13:04.789Z,18.54
2018-07-16T00:15:34.142Z,18.86
2018-07-16T00:18:03.317Z,18.54
2018-07-16T00:20:32.486Z,18.39
2018-07-16T00:23:01.675Z,17.90
2018-07-16T00:25:30.913Z,18.05
2018-07-16T00:28:00.077Z,17.99
2018-07-16T00:30:29.237Z,17.99
2018-07-16T00:32:58.418Z,18.16
2018-07-16T00:35:27.585Z,17.96
2018-07-16T00:37:56.837Z,18.03
2018-07-16T00:40:26.020Z,18.11
2018-07-16T00:42:55.181Z,18.14
2018-07-16T00:45:24.361Z,18.45
2018-07-16T00:47:53.531Z,18.02
2018-07-16T00:50:22.703Z,18.28
2018-07-16T00:52:51.854Z,17.88
2018-07-16T00:55:21.050Z,18.04
2018-07-16T00:57:50.205Z,17.99
2018-07-16T01:00:19.561Z,18.11
2018-07-16T01:02:48.749Z,18.10
2018-07-16T01:05:17.904Z,17.99
2018-07-16T01:07:47.065Z,17.92
2018-07-16T01:10:16.282Z,17.74
2018-07-16T01:12:45.454Z,17.62
2018-07-16T01:15:14.618Z,17.56
2018-07-16T01:17:43.811Z,17.79
2018-07-16T01:20:12.981Z,17.83
2018-07-16T01:22:42.237Z,17.40
2018-07-16T01:25:11.414Z,17.49
2018-07-16T01:27:40.589Z,17.64
2018-07-16T01:30:09.754Z,17.32
2018-07-16T01:32:39.010Z,17.54
2018-07-16T01:35:08.240Z,17.78
2018-07-16T01:37:37.600Z,17.70
2018-07-16T01:40:06.812Z,17.74
2018-07-16T01:42:35.993Z,17.61
2018-07-16T01:45:05.202Z,17.58
2018-07-16T01:47:34.379Z,17.30
2018-07-16T01:50:03.566Z,17.44
2018-07-16T01:52:32.736Z,17.15
2018-07-16T01:55:01.899Z,17.42
2018-07-16T01:57:31.097Z,17.24
2018-07-16T02:00:00.249Z,16.99
2018-07-16T02:02:29.629Z,17.19
2018-07-16T02:04:59.803Z,17.15
2018-07-16T02:07:28.994Z,17.01
2018-07-16T02:09:58.176Z,16.97
2018-07-16T02:12:27.321Z,17.06
2018-07-16T02:14:56.476Z,16.72
2018-07-16T02:17:25.639Z,17.01
2018-07-16T02:19:54.817Z,16.93
2018-07-16T02:22:24.192Z,17.03
2018-07-16T02:24:53.340Z,16.65
2018-07-16T02:27:22.513Z,16.69
2018-07-16T02:29:51.691Z,16.79
2018-07-16T02:32:20.862Z,16.84
2018-07-16T02:34:50.058Z,16.84
2018-07-16T02:37:19.222Z,16.84
2018-07-16T02:39:48.377Z,16.93
2018-07-16T02:42:17.558Z,16.80
2018-07-16T02:44:46.721Z,16.90
2018-07-16T02:47:16.123Z,16.94
2018-07-16T02:49:45.278Z,16.89
2018-07-16T02:52:14.458Z,16.66
2018-07-16T02:54:43.618Z,16.92
2018-07-16T02:57:12.771Z,16.71
2018-07-16T02:59:42.101Z,16.66
2018-07-16T03:02:11.428Z,16.86
2018-07-16T03:04:40.638Z,16.68
2018-07-16T03:07:09.798Z,16.50
2018-07-16T03:09:38.966Z,16.48
2018-07-16T03:12:08.825Z,16.45
2018-07-16T03:14:38.043Z,16.41
2018-07-16T03:17:07.345Z,16.51
2018-07-16T03:19:36.661Z,16.38
2018-07-16T03:22:05.938Z,16.73
2018-07-16T03:24:35.103Z,16.71
2018-07-16T03:27:04.465Z,16.80
2018-07-16T03:29:33.692Z,16.58
2018-07-16T03:32:02.873Z,16.66
2018-07-16T03:34:32.042Z,16.68
2018-07-16T03:37:01.325Z,16.55
2018-07-16T03:39:30.687Z,16.44
2018-07-16T03:42:00.081Z,16.60
2018-07-16T03:44:29.452Z,16.58
2018-07-16T03:46:58.659Z,16.67
2018-07-16T03:49:27.833Z,16.59
2018-07-16T03:51:57.053Z,16.71
2018-07-16T03:54:26.233Z,16.90
2018-07-16T03:56:55.534Z,16.88
2018-07-16T03:59:24.714Z,17.05
2018-07-16T04:01:53.937Z,16.75
2018-07-16T04:04:23.148Z,16.60
2018-07-16T04:06:52.315Z,16.59
2018-07-16T04:09:21.487Z,16.67
2018-07-16T04:11:50.667Z,16.64
2018-07-16T04:14:20.172Z,16.62
2018-07-16T04:16:49.348Z,16.72
2018-07-16T04:19:18.520Z,16.96
2018-07-16T04:21:47.714Z,17.10
2018-07-16T04:24:16.885Z,16.92
2018-07-16T04:26:46.160Z,17.00
2018-07-16T04:29:15.328Z,16.99
2018-07-16T04:31:44.486Z,17.47
2018-07-16T04:34:13.651Z,17.18
2018-07-16T04:36:42.805Z,17.08
2018-07-16T04:39:11.974Z,17.21
2018-07-16T04:41:41.144Z,17.29
2018-07-16T04:44:10.310Z,17.26
2018-07-16T04:46:39.684Z,17.64
2018-07-16T04:49:08.850Z,17.60
2018-07-16T04:51:38.007Z,17.48
2018-07-16T04:54:07.177Z,17.90
2018-07-16T04:56:36.440Z,17.90
2018-07-16T04:59:05.820Z,17.69
2018-07-16T05:01:34.993Z,17.74
2018-07-16T05:04:04.170Z,17.83
2018-07-16T05:06:33.334Z,17.71
2018-07-16T05:09:02.564Z,17.53
2018-07-16T05:11:31.717Z,17.98
2018-07-16T05:14:00.905Z,18.26
2018-07-16T05:16:30.087Z,18.17
2018-07-16T05:18:59.369Z,18.82
2018-07-16T05:21:28.652Z,18.89
2018-07-16T05:23:57.917Z,18.55
2018-07-16T05:26:27.033Z,19.57
2018-07-16T05:28:56.237Z,20.68
2018-07-16T05:31:25.461Z,22.45
2018-07-16T05:33:54.644Z,22.93
2018-07-16T05:36:23.869Z,24.03
2018-07-16T05:38:53.202Z,26.80
2018-07-16T05:41:22.357Z,28.20
2018-07-16T05:43:51.532Z,26.81
2018-07-16T05:46:20.730Z,26.38
2018-07-16T05:48:49.933Z,26.87
2018-07-16T05:51:19.133Z,27.34
2018-07-16T05:53:48.290Z,27.42
2018-07-16T05:56:17.469Z,28.38
2018-07-16T05:58:46.638Z,30.05
2018-07-16T06:01:15.842Z,29.49
2018-07-16T06:03:45.014Z,30.11
2018-07-16T06:06:14.377Z,32.52
2018-07-16T06:08:43.575Z,32.24
2018-07-16T06:11:12.770Z,31.91
2018-07-16T06:13:41.933Z,31.35
2018-07-16T06:16:11.161Z,33.28
2018-07-16T06:18:40.392Z,33.09
2018-07-16T06:21:09.687Z,31.23
2018-07-16T06:23:38.861Z,30.62
2018-07-16T06:26:08.068Z,31.31
2018-07-16T06:28:37.240Z,33.27
2018-07-16T06:31:06.433Z,33.97
2018-07-16T06:33:35.618Z,33.87
2018-07-16T06:36:04.856Z,35.31
2018-07-16T06:38:34.050Z,35.67
2018-07-16T06:41:03.574Z,35.81
2018-07-16T06:43:32.567Z,35.33
2018-07-16T06:46:01.754Z,35.79
2018-07-16T06:48:30.937Z,36.64
2018-07-16T06:51:00.146Z,36.64
2018-07-16T06:53:29.374Z,35.47
2018-07-16T06:55:58.603Z,37.42
2018-07-16T06:58:27.887Z,37.62
2018-07-16T07:00:57.169Z,38.69
2018-07-16T07:03:26.512Z,37.45
2018-07-16T07:05:55.879Z,36.54
2018-07-16T07:08:25.195Z,36.76
2018-07-16T07:10:54.418Z,37.80
2018-07-16T07:13:23.654Z,37.91
2018-07-16T07:15:52.875Z,37.03
2018-07-16T07:18:22.216Z,37.59
2018-07-16T07:20:51.570Z,37.71
2018-07-16T07:23:20.820Z,37.32
2018-07-16T07:25:50.372Z,37.10
2018-07-16T07:28:19.623Z,37.24
2018-07-16T07:30:49.872Z,38.35
2018-07-16T07:33:19.136Z,37.26
2018-07-16T07:35:48.462Z,37.18
2018-07-16T07:38:17.782Z,38.63
2018-07-16T07:40:47.004Z,38.50
2018-07-16T07:43:16.228Z,39.06
2018-07-16T07:45:45.495Z,38.95
2018-07-16T07:48:14.700Z,37.99
2018-07-16T07:50:44.126Z,39.08
2018-07-16T07:53:13.440Z,38.34
2018-07-16T07:55:42.915Z,39.21
2018-07-16T07:58:12.267Z,39.16
2018-07-16T08:00:41.473Z,38.57
2018-07-16T08:03:10.823Z,39.38
2018-07-16T08:05:40.084Z,39.38
2018-07-16T08:08:09.624Z,39.90
2018-07-16T08:10:45.452Z,39.13
2018-07-16T08:13:14.969Z,38.93
2018-07-16T08:15:44.353Z,38.37
2018-07-16T08:18:13.671Z,39.61
2018-07-16T08:20:42.913Z,39.10
2018-07-16T08:23:12.183Z,38.89
2018-07-16T08:25:41.623Z,38.88
2018-07-16T08:28:10.946Z,39.79
2018-07-16T08:30:40.477Z,39.39
2018-07-16T08:33:09.933Z,39.65
2018-07-16T08:35:39.612Z,40.00
2018-07-16T08:38:09.797Z,39.49
2018-07-16T08:40:39.188Z,39.48
2018-07-16T08:43:08.548Z,40.27
2018-07-16T08:45:37.802Z,41.66
2018-07-16T08:48:07.357Z,41.02
2018-07-16T08:50:36.714Z,40.14
2018-07-16T08:53:06.163Z,39.09
2018-07-16T08:55:35.439Z,39.62
2018-07-16T08:58:04.689Z,40.56
2018-07-16T09:00:33.941Z,39.82
2018-07-16T09:03:03.247Z,41.44
2018-07-16T09:05:32.518Z,41.07
2018-07-16T09:08:01.913Z,41.73
2018-07-16T09:10:31.281Z,41.69
2018-07-16T09:13:00.666Z,40.47
2018-07-16T09:15:30.043Z,40.69
2018-07-16T09:17:59.305Z,41.56
2018-07-16T09:20:28.526Z,43.79
2018-07-16T09:22:57.803Z,40.89
2018-07-16T09:25:27.316Z,42.73
2018-07-16T09:27:56.565Z,43.27
2018-07-16T09:30:25.868Z,40.73
2018-07-16T09:32:55.146Z,40.76
2018-07-16T09:35:24.496Z,40.63
2018-07-16T09:37:53.753Z,39.52
2018-07-16T09:40:23.243Z,40.96
2018-07-16T09:42:52.589Z,40.58
2018-07-16T09:45:21.842Z,39.46
2018-07-16T09:47:51.226Z,41.53
2018-07-16T09:50:20.666Z,41.36
2018-07-16T09:52:49.921Z,42.70
2018-07-16T09:55:19.333Z,42.90
2018-07-16T09:57:48.659Z,43.78
2018-07-16T10:00:23.219Z,41.51
2018-07-16T10:02:52.473Z,40.93
2018-07-16T10:05:21.841Z,39.64
2018-07-16T10:07:51.182Z,40.57
2018-07-16T10:10:20.461Z,40.04
2018-07-16T10:12:49.920Z,39.08
2018-07-16T10:15:19.594Z,38.31
2018-07-16T10:17:49.021Z,39.40
2018-07-16T10:20:18.483Z,39.37
2018-07-16T10:22:48.016Z,38.77
2018-07-16T10:25:17.621Z,38.66
2018-07-16T10:27:46.986Z,38.88
2018-07-16T10:30:16.687Z,38.83
2018-07-16T10:32:45.993Z,36.91
2018-07-16T10:35:15.258Z,35.38
2018-07-16T10:37:44.642Z,35.50
2018-07-16T10:40:14.130Z,33.56
2018-07-16T10:42:43.381Z,34.17
2018-07-16T10:45:12.648Z,32.72
2018-07-16T10:47:42.135Z,33.27
2018-07-16T10:50:11.393Z,33.38
2018-07-16T10:52:40.598Z,32.92
2018-07-16T10:55:09.905Z,33.05
2018-07-16T10:57:39.108Z,35.07
2018-07-16T11:00:08.373Z,35.31
2018-07-16T11:02:37.571Z,36.13
2018-07-16T11:05:06.903Z,38.17
2018-07-16T11:07:36.161Z,39.18
2018-07-16T11:10:05.463Z,39.22
2018-07-16T11:12:34.709Z,39.37
2018-07-16T11:15:04.074Z,40.90
2018-07-16T11:17:33.259Z,37.59
2018-07-16T11:20:02.521Z,39.15
2018-07-16T11:22:31.786Z,39.23
2018-07-16T11:25:01.045Z,37.94
2018-07-16T11:27:31.310Z,37.43
2018-07-16T11:30:00.787Z,35.70
2018-07-16T11:32:30.019Z,35.61
2018-07-16T11:34:59.458Z,35.20
2018-07-16T11:37:28.750Z,33.92
2018-07-16T11:39:58.104Z,33.06
2018-07-16T11:42:27.418Z,32.68
2018-07-16T11:44:56.670Z,32.78
2018-07-16T11:47:26.075Z,33.05
2018-07-16T11:49:55.357Z,32.89
2018-07-16T11:52:24.558Z,32.90
2018-07-16T11:54:53.808Z,32.82
2018-07-16T11:57:23.041Z,31.85
2018-07-16T11:59:52.385Z,33.16
2018-07-16T12:02:21.627Z,33.92
2018-07-16T12:04:50.887Z,33.88
2018-07-16T12:07:20.286Z,33.04
2018-07-16T12:09:49.631Z,31.97
2018-07-16T12:12:18.932Z,32.71
2018-07-16T12:14:48.283Z,32.89
2018-07-16T12:17:17.577Z,33.03
2018-07-16T12:19:46.829Z,32.96
2018-07-16T12:22:16.092Z,32.60
2018-07-16T12:24:45.379Z,33.47
2018-07-16T12:27:14.824Z,34.05
2018-07-16T12:29:44.081Z,33.94
2018-07-16T12:32:13.335Z,33.69
2018-07-16T12:34:42.649Z,33.83
2018-07-16T12:37:11.895Z,34.23
2018-07-16T12:39:41.176Z,33.93
2018-07-16T12:42:11.408Z,34.27
2018-07-16T12:44:41.519Z,34.04
2018-07-16T12:47:10.852Z,34.55
2018-07-16T12:49:40.230Z,34.28
2018-07-16T12:52:09.704Z,34.23
2018-07-16T12:54:39.133Z,34.69
2018-07-16T12:57:08.620Z,35.64
2018-07-16T12:59:37.819Z,35.38
2018-07-16T13:02:07.029Z,34.26
2018-07-16T13:04:36.276Z,34.59
2018-07-16T13:07:05.922Z,34.00
2018-07-16T13:09:35.212Z,34.22
2018-07-16T13:12:04.369Z,33.98
2018-07-16T13:14:33.536Z,34.00
2018-07-16T13:17:02.727Z,33.40
2018-07-16T13:19:31.916Z,33.39
2018-07-16T13:22:01.659Z,33.55
2018-07-16T13:24:31.162Z,33.02
2018-07-16T13:27:00.533Z,33.16
2018-07-16T13:29:30.184Z,32.69
2018-07-16T13:31:59.637Z,33.04
2018-07-16T13:34:28.858Z,32.59
2018-07-16T13:36:58.074Z,32.97
2018-07-16T13:39:27.589Z,32.62
2018-07-16T13:41:56.753Z,32.39
2018-07-16T13:44:25.922Z,33.23
2018-07-16T13:46:55.094Z,32.85
2018-07-16T13:49:24.259Z,32.97
2018-07-16T13:51:53.509Z,33.10
2018-07-16T13:54:22.869Z,31.74
2018-07-16T13:56:52.463Z,32.31
2018-07-16T13:59:21.698Z,32.53
2018-07-16T14:01:50.882Z,32.31
2018-07-16T14:04:20.127Z,32.42
2018-07-16T14:06:49.334Z,32.70
2018-07-16T14:09:18.683Z,32.92
2018-07-16T14:11:47.859Z,32.92
2018-07-16T14:14:17.028Z,33.10
2018-07-16T14:16:46.206Z,33.04
2018-07-16T14:19:15.426Z,32.86
2018-07-16T14:21:44.667Z,32.95
2018-07-16T14:24:13.840Z,32.89
2018-07-16T14:26:43.094Z,33.00
2018-07-16T14:29:12.305Z,32.96
2018-07-16T14:31:41.509Z,31.65
2018-07-16T14:34:10.684Z,32.20
2018-07-16T14:36:39.875Z,32.88
2018-07-16T14:39:09.080Z,32.19
2018-07-16T14:41:38.266Z,32.58
2018-07-16T14:44:07.441Z,33.07
2018-07-16T14:46:36.632Z,32.22
2018-07-16T14:49:06.246Z,32.28
2018-07-16T14:51:35.429Z,32.41
2018-07-16T14:54:10.613Z,32.65
2018-07-16T14:56:39.788Z,32.36
2018-07-16T14:59:08.971Z,32.39
2018-07-16T15:01:38.145Z,32.06
2018-07-16T15:04:07.519Z,33.08
2018-07-16T15:06:36.705Z,33.55
2018-07-16T15:09:07.846Z,33.19
2018-07-16T15:11:37.025Z,33.21
2018-07-16T15:14:06.529Z,33.47
2018-07-16T15:16:35.698Z,33.21
2018-07-16T15:19:05.061Z,33.10
2018-07-16T15:21:34.318Z,33.09
2018-07-16T15:24:03.423Z,32.94
2018-07-16T15:26:32.601Z,32.79
2018-07-16T15:29:01.770Z,33.13
2018-07-16T15:31:30.939Z,33.21
2018-07-16T15:34:00.129Z,32.84
2018-07-16T15:36:29.336Z,33.15
2018-07-16T15:38:58.534Z,32.62
2018-07-16T15:41:27.844Z,32.27
2018-07-16T15:43:57.023Z,32.57
2018-07-16T15:46:26.214Z,30.52
2018-07-16T15:48:55.419Z,30.86
2018-07-16T15:51:24.611Z,30.47
2018-07-16T15:53:53.918Z,30.44
2018-07-16T15:56:23.108Z,30.00
2018-07-16T15:58:52.294Z,29.77
2018-07-16T16:01:21.474Z,29.51
2018-07-16T16:03:50.769Z,29.56
2018-07-16T16:06:19.941Z,30.39
2018-07-16T16:08:49.125Z,30.14
2018-07-16T16:11:18.287Z,29.30
2018-07-16T16:13:47.522Z,28.75
2018-07-16T16:16:16.755Z,27.81
2018-07-16T16:18:45.939Z,26.50
2018-07-16T16:21:15.131Z,25.36
2018-07-16T16:23:44.293Z,25.20
2018-07-16T16:26:13.572Z,25.79
2018-07-16T16:28:42.744Z,26.58
2018-07-16T16:31:11.944Z,24.88
2018-07-16T16:33:41.117Z,24.57
2018-07-16T16:36:10.302Z,24.38
2018-07-16T16:38:39.520Z,24.35
2018-07-16T16:41:09.126Z,24.47
2018-07-16T16:43:38.331Z,24.45
2018-07-16T16:46:07.630Z,24.12
2018-07-16T16:48:36.814Z,23.78
2018-07-16T16:51:05.977Z,23.89
2018-07-16T16:53:35.145Z,23.62
2018-07-16T16:56:04.449Z,23.59
2018-07-16T16:58:34.082Z,23.86
2018-07-16T17:01:03.181Z,24.02
2018-07-16T17:03:32.473Z,24.10
2018-07-16T17:06:02.673Z,24.21
2018-07-16T17:08:31.850Z,23.57
2018-07-16T17:11:01.058Z,23.51
2018-07-16T17:13:30.217Z,23.69
2018-07-16T17:15:59.457Z,23.50
2018-07-16T17:18:28.709Z,23.51
2018-07-16T17:20:57.917Z,23.77
2018-07-16T17:23:27.079Z,23.69
2018-07-16T17:25:56.293Z,24.12
2018-07-16T17:28:25.478Z,23.63
2018-07-16T17:30:54.650Z,23.70
2018-07-16T17:33:23.820Z,23.60
2018-07-16T17:35:53.308Z,23.92
2018-07-16T17:38:22.505Z,24.01
2018-07-16T17:40:52.124Z,24.20
2018-07-16T17:43:21.747Z,24.09
2018-07-16T17:45:51.039Z,24.15
2018-07-16T17:48:20.229Z,23.76
2018-07-16T17:50:49.447Z,23.62
2018-07-16T17:53:18.700Z,23.64
2018-07-16T17:55:47.859Z,23.81
2018-07-16T17:58:17.042Z,23.57
2018-07-16T18:00:46.214Z,23.55
2018-07-16T18:03:15.403Z,23.86
2018-07-16T18:05:44.582Z,23.65
2018-07-16T18:08:13.764Z,23.63
2018-07-16T18:10:43.011Z,23.67
2018-07-16T18:13:12.228Z,23.43
2018-07-16T18:15:41.398Z,23.63
2018-07-16T18:18:10.630Z,23.36
2018-07-16T18:20:39.803Z,22.82
2018-07-16T18:23:09.046Z,22.59
2018-07-16T18:25:38.253Z,22.41
2018-07-16T18:28:07.446Z,22.65
2018-07-16T18:30:36.619Z,22.48
2018-07-16T18:33:05.933Z,22.54
2018-07-16T18:35:35.156Z,22.73
2018-07-16T18:38:04.314Z,22.77
2018-07-16T18:40:33.490Z,22.69
2018-07-16T18:43:02.720Z,22.64
2018-07-16T18:45:31.929Z,22.88
2018-07-16T18:48:01.096Z,22.92
2018-07-16T18:50:30.271Z,22.79
2018-07-16T18:52:59.472Z,22.72
2018-07-16T18:55:28.784Z,22.81
2018-07-16T18:57:57.930Z,22.83
2018-07-16T19:00:27.185Z,22.56
2018-07-16T19:02:56.436Z,22.63
2018-07-16T19:05:25.673Z,22.72
2018-07-16T19:11:29.820Z,22.64
2018-07-16T19:13:58.989Z,22.77
2018-07-16T19:16:28.175Z,22.75
2018-07-16T19:18:57.377Z,22.78
2018-07-16T19:21:26.586Z,22.96
2018-07-16T19:24:23.840Z,22.87
2018-07-16T19:26:53.004Z,22.76
2018-07-16T19:29:22.221Z,22.17
2018-07-16T19:31:51.436Z,22.05
2018-07-16T19:34:20.656Z,21.83
2018-07-16T19:36:49.847Z,21.85
2018-07-16T19:39:19.109Z,21.97
2018-07-16T19:41:48.240Z,22.27
2018-07-16T19:44:17.473Z,22.10
2018-07-16T19:46:46.726Z,22.16
2018-07-16T19:49:15.924Z,22.06
2018-07-16T19:51:45.097Z,22.08
2018-07-16T19:54:14.301Z,21.98
2018-07-16T19:56:43.537Z,21.94
2018-07-16T19:59:12.861Z,22.10
2018-07-16T20:01:42.392Z,22.07
2018-07-16T20:04:11.621Z,22.17
2018-07-16T20:06:40.848Z,22.22
2018-07-16T20:09:10.325Z,22.32
2018-07-16T20:11:39.669Z,21.92
2018-07-16T20:14:09.017Z,22.42
2018-07-16T20:16:43.077Z,22.49
2018-07-16T20:19:13.325Z,22.69
2018-07-16T20:21:42.776Z,22.19
2018-07-16T20:24:12.001Z,22.46
2018-07-16T20:26:41.185Z,22.86
2018-07-16T20:29:10.663Z,22.80
2018-07-16T20:31:39.874Z,22.69
2018-07-16T20:34:09.361Z,22.80
2018-07-16T20:36:38.662Z,22.61
2018-07-16T20:39:08.964Z,22.57
2018-07-16T20:41:38.203Z,22.57
2018-07-16T20:44:07.389Z,22.62
2018-07-16T20:46:36.718Z,22.32
2018-07-16T20:49:06.028Z,22.15
2018-07-16T20:51:35.204Z,22.32
2018-07-16T20:54:04.459Z,22.35
2018-07-16T20:56:33.640Z,22.13
2018-07-16T20:59:02.879Z,21.85
2018-07-16T21:01:32.082Z,21.76
2018-07-16T21:04:01.304Z,21.96
2018-07-16T21:06:30.497Z,22.00
2018-07-16T21:08:59.770Z,21.72
2018-07-16T21:11:29.005Z,21.94
2018-07-16T21:13:58.441Z,22.06
2018-07-16T21:16:27.681Z,21.70
2018-07-16T21:18:56.968Z,21.55
2018-07-16T21:21:26.161Z,22.01
2018-07-16T21:23:55.361Z,21.87
2018-07-16T21:26:24.628Z,21.78
2018-07-16T21:28:53.893Z,21.61
2018-07-16T21:31:23.124Z,21.47
2018-07-16T21:33:52.360Z,21.37
2018-07-16T21:36:21.548Z,21.49
2018-07-16T21:38:50.777Z,21.31
2018-07-16T21:41:19.990Z,21.25
2018-07-16T21:43:49.222Z,21.45
2018-07-16T21:46:18.405Z,21.16
2018-07-16T21:48:47.638Z,21.21
2018-07-16T21:51:16.892Z,21.76
2018-07-16T21:53:46.102Z,21.52
2018-07-16T21:56:15.307Z,21.06
2018-07-16T21:58:44.529Z,20.90
2018-07-16T22:01:13.709Z,20.96
2018-07-16T22:03:42.936Z,20.71
2018-07-16T22:06:12.181Z,21.13
2018-07-16T22:08:41.392Z,20.95
2018-07-16T22:11:10.661Z,20.90
2018-07-16T22:13:39.972Z,21.16
2018-07-16T22:16:09.236Z,21.22
2018-07-16T22:18:38.485Z,21.40
2018-07-16T22:21:07.660Z,21.12
2018-07-16T22:23:36.825Z,20.96
2018-07-16T22:26:06.116Z,21.08
2018-07-16T22:28:35.400Z,21.09
2018-07-16T22:31:04.583Z,20.85
2018-07-16T22:33:33.758Z,20.90
2018-07-16T22:36:02.956Z,20.93
2018-07-16T22:38:32.119Z,20.91
2018-07-16T22:41:01.277Z,20.79
2018-07-16T22:43:30.457Z,20.74
2018-07-16T22:45:59.613Z,20.73
2018-07-16T22:48:28.772Z,20.93
2018-07-16T22:50:57.946Z,20.77
2018-07-16T22:53:27.144Z,20.52
2018-07-16T22:55:56.337Z,20.86
2018-07-16T22:58:25.497Z,20.93
2018-07-16T23:00:54.645Z,20.86
2018-07-16T23:03:23.860Z,20.57
2018-07-16T23:05:53.093Z,20.83
2018-07-16T23:08:22.278Z,20.58
2018-07-16T23:10:51.416Z,20.34
2018-07-16T23:13:20.616Z,20.34
2018-07-16T23:15:49.785Z,20.29
2018-07-16T23:18:18.980Z,20.06
2018-07-16T23:20:48.137Z,20.31
2018-07-16T23:23:17.297Z,20.35
2018-07-16T23:25:46.449Z,20.28
2018-07-16T23:28:15.668Z,20.15
2018-07-16T23:30:44.849Z,20.25
2018-07-16T23:33:14.020Z,20.22
2018-07-16T23:35:43.205Z,20.09
2018-07-16T23:38:12.380Z,20.28
2018-07-16T23:40:41.537Z,20.06
2018-07-16T23:43:10.685Z,19.86
2018-07-16T23:45:39.844Z,19.75
2018-07-16T23:48:09.041Z,20.01
2018-07-16T23:50:38.334Z,19.77
2018-07-16T23:53:07.485Z,19.57
2018-07-16T23:55:36.697Z,19.54
2018-07-16T23:58:05.860Z,19.48
